Time;durP1;ratioP1;P1;durP2;ratioP2;P2;SDS_P1;SDS_P2;PMS_P1;PMS_P2;Temp;Humidity;BMP_temperature;BMP_pressure;BME280_temperature;BME280_humidity;BME280_pressure;Samples;Min_cycle;Max_cycle;Signal;HPM_P1;HPM_P2
2023/10/03 00:02:20;;;;;;;48.20;27.42;;;;;;;;;;5086867;28;20055;-85
2023/10/03 00:04:48;;;;;;;46.10;26.63;;;;;;;;;;5099322;28;20455;-82
2023/10/03 00:07:14;;;;;;;49.53;27.40;;;;;;;;;;5083457;28;20188;-83
2023/10/03 00:09:41;;;;;;;44.67;26.30;;;;;;;;;;5099280;28;20126;-85
2023/10/03 00:12:08;;;;;;;46.90;26.58;;;;;;;;;;5098564;28;20036;-84
2023/10/03 00:14:34;;;;;;;44.85;25.77;;;;;;;;;;5090833;28;20050;-84
2023/10/03 00:17:00;;;;;;;41.85;24.90;;;;;;;;;;5101046;28;20060;-84
2023/10/03 00:19:26;;;;;;;48.05;25.33;;;;;;;;;;5098419;28;20044;-85
2023/10/03 00:21:52;;;;;;;42.22;25.80;;;;;;;;;;5101848;28;20181;-83
2023/10/03 00:24:19;;;;;;;41.58;24.35;;;;;;;;;;5103009;28;20068;-85
2023/10/03 00:26:45;;;;;;;43.70;24.95;;;;;;;;;;5099763;28;20044;-85
2023/10/03 00:29:23;;;;;;;41.05;25.17;;;;;;;;;;5101809;28;20090;-85
2023/10/03 00:31:50;;;;;;;41.13;23.38;;;;;;;;;;5098560;28;20122;-85
2023/10/03 00:34:16;;;;;;;40.15;24.45;;;;;;;;;;5101670;28;20122;-85
2023/10/03 00:36:42;;;;;;;41.95;23.63;;;;;;;;;;5100957;28;20051;-85
2023/10/03 00:39:09;;;;;;;41.80;24.27;;;;;;;;;;5079068;28;20056;-83
2023/10/03 00:41:35;;;;;;;43.50;25.17;;;;;;;;;;5102471;28;20044;-84
2023/10/03 00:44:03;;;;;;;40.40;24.20;;;;;;;;;;5101127;28;20501;-83
2023/10/03 00:46:30;;;;;;;42.47;24.25;;;;;;;;;;5101476;28;20190;-84
2023/10/03 00:48:57;;;;;;;39.45;23.23;;;;;;;;;;5100264;28;20051;-84
2023/10/03 00:51:23;;;;;;;44.00;24.75;;;;;;;;;;5098010;28;20086;-85
2023/10/03 00:53:55;;;;;;;40.83;23.92;;;;;;;;;;5081854;28;20048;-84
2023/10/03 00:56:22;;;;;;;42.85;24.30;;;;;;;;;;5083018;28;20036;-84
2023/10/03 00:58:48;;;;;;;40.17;22.92;;;;;;;;;;5077854;28;20052;-84
2023/10/03 01:01:15;;;;;;;40.03;23.05;;;;;;;;;;5084560;28;20487;-84
2023/10/03 01:03:41;;;;;;;39.00;23.13;;;;;;;;;;5100073;28;20040;-83
2023/10/03 01:06:08;;;;;;;36.30;22.88;;;;;;;;;;5099586;28;20039;-85
2023/10/03 01:08:39;;;;;;;35.75;21.50;;;;;;;;;;5100487;28;20048;-83
2023/10/03 01:11:07;;;;;;;39.70;22.67;;;;;;;;;;5097736;28;20036;-83
2023/10/03 01:13:34;;;;;;;39.88;23.20;;;;;;;;;;5067852;28;20048;-84
2023/10/03 01:16:03;;;;;;;39.92;21.77;;;;;;;;;;5081150;28;20036;-84
2023/10/03 01:18:31;;;;;;;36.53;21.73;;;;;;;;;;5101099;28;20048;-84
2023/10/03 01:21:01;;;;;;;38.33;21.17;;;;;;;;;;5080049;28;20036;-83
2023/10/03 01:23:33;;;;;;;37.88;21.50;;;;;;;;;;5079929;28;20103;-84
2023/10/03 01:25:59;;;;;;;43.15;21.67;;;;;;;;;;5099733;28;20040;-84
2023/10/03 01:28:25;;;;;;;38.13;21.55;;;;;;;;;;5055038;28;20052;-83
2023/10/03 01:30:51;;;;;;;39.42;21.83;;;;;;;;;;5092029;28;20043;-84
2023/10/03 01:33:17;;;;;;;38.25;22.58;;;;;;;;;;5096242;28;20047;-84
2023/10/03 01:35:43;;;;;;;40.75;22.17;;;;;;;;;;5100689;28;20153;-84
2023/10/03 01:38:10;;;;;;;34.80;21.30;;;;;;;;;;5095354;28;20040;-84
2023/10/03 01:40:36;;;;;;;37.25;21.70;;;;;;;;;;5100927;28;20114;-84
2023/10/03 01:43:03;;;;;;;37.17;21.63;;;;;;;;;;5099580;28;20082;-84
2023/10/03 01:45:33;;;;;;;37.88;21.42;;;;;;;;;;5099855;28;20044;-84
2023/10/03 01:47:59;;;;;;;37.97;20.73;;;;;;;;;;5098760;28;20040;-83
2023/10/03 01:50:28;;;;;;;37.13;20.63;;;;;;;;;;5076708;28;20059;-84
2023/10/03 01:52:55;;;;;;;35.30;20.85;;;;;;;;;;5093243;28;20395;-84
2023/10/03 01:55:21;;;;;;;34.03;20.50;;;;;;;;;;5078862;28;20052;-84
2023/10/03 01:57:47;;;;;;;38.47;20.23;;;;;;;;;;5088844;28;20044;-83
2023/10/03 02:02:47;;;;;;;39.70;20.38;;;;;;;;;;5093997;28;20041;-84
2023/10/03 02:05:14;;;;;;;35.13;20.83;;;;;;;;;;5082650;28;20047;-84
2023/10/03 02:07:41;;;;;;;38.00;20.40;;;;;;;;;;5082935;28;20087;-84
2023/10/03 02:10:07;;;;;;;37.72;20.95;;;;;;;;;;5081660;28;20524;-84
2023/10/03 02:12:33;;;;;;;35.55;20.30;;;;;;;;;;5061914;28;20052;-84
2023/10/03 02:15:07;;;;;;;39.20;20.27;;;;;;;;;;5099648;28;20040;-84
2023/10/03 02:17:34;;;;;;;35.70;19.92;;;;;;;;;;5099231;28;20508;-83
2023/10/03 02:20:01;;;;;;;37.72;21.20;;;;;;;;;;5090959;28;20494;-84
2023/10/03 02:22:27;;;;;;;38.78;21.35;;;;;;;;;;5091837;28;20085;-83
2023/10/03 02:24:53;;;;;;;35.67;20.02;;;;;;;;;;5094885;28;20051;-84
2023/10/03 02:27:19;;;;;;;37.72;19.73;;;;;;;;;;5098557;28;20040;-84
2023/10/03 02:29:51;;;;;;;35.38;20.15;;;;;;;;;;5084274;28;20409;-84
2023/10/03 02:32:19;;;;;;;35.15;19.60;;;;;;;;;;5094436;28;20051;-84
2023/10/03 02:34:47;;;;;;;39.38;20.70;;;;;;;;;;5081545;28;20492;-84
2023/10/03 02:37:14;;;;;;;39.00;21.55;;;;;;;;;;5089343;28;20403;-84
2023/10/03 02:39:40;;;;;;;40.13;20.50;;;;;;;;;;5096161;28;20067;-84
2023/10/03 02:42:08;;;;;;;39.58;20.27;;;;;;;;;;5104060;28;20040;-84
2023/10/03 02:44:36;;;;;;;37.85;20.75;;;;;;;;;;5103512;28;20047;-84
2023/10/03 02:47:04;;;;;;;36.58;20.15;;;;;;;;;;5099439;28;20040;-84
2023/10/03 02:49:30;;;;;;;39.33;21.35;;;;;;;;;;5104809;28;20051;-84
2023/10/03 02:51:59;;;;;;;33.75;19.13;;;;;;;;;;5085977;28;20062;-84
2023/10/03 02:54:26;;;;;;;35.17;20.23;;;;;;;;;;5103634;28;20097;-85
2023/10/03 02:56:53;;;;;;;34.25;19.83;;;;;;;;;;5095080;28;20040;-83
2023/10/03 02:59:20;;;;;;;35.58;20.40;;;;;;;;;;5102791;28;20075;-84
2023/10/03 03:01:52;;;;;;;38.78;20.05;;;;;;;;;;5103682;28;20040;-84
2023/10/03 03:04:18;;;;;;;38.47;20.83;;;;;;;;;;5078857;28;20056;-84
2023/10/03 03:06:46;;;;;;;37.05;19.90;;;;;;;;;;5102841;28;20092;-83
2023/10/03 03:09:23;;;;;;;37.33;20.40;;;;;;;;;;5103660;28;20040;-84
2023/10/03 03:11:50;;;;;;;40.92;21.02;;;;;;;;;;5095598;28;20040;-84
2023/10/03 03:14:16;;;;;;;35.83;20.08;;;;;;;;;;5103564;28;20060;-84
2023/10/03 03:16:42;;;;;;;37.15;21.33;;;;;;;;;;5103193;28;20040;-84
2023/10/03 03:19:10;;;;;;;40.00;20.95;;;;;;;;;;5104358;28;20058;-84
2023/10/03 03:21:36;;;;;;;36.50;21.17;;;;;;;;;;5085709;28;20105;-84
2023/10/03 03:24:08;;;;;;;35.13;19.23;;;;;;;;;;5100337;28;20040;-83
2023/10/03 03:26:39;;;;;;;36.20;20.05;;;;;;;;;;5102811;28;20505;-84
2023/10/03 03:29:21;;;;;;;37.15;20.25;;;;;;;;;;5066508;28;20048;-83
2023/10/03 03:31:52;;;;;;;35.58;19.77;;;;;;;;;;5085026;28;20242;-84
2023/10/03 03:34:18;;;;;;;35.90;20.30;;;;;;;;;;5097536;28;20147;-84
2023/10/03 03:36:46;;;;;;;36.20;19.30;;;;;;;;;;5102250;28;20078;-84
2023/10/03 03:39:15;;;;;;;34.78;18.60;;;;;;;;;;5100384;28;20060;-84
2023/10/03 03:41:42;;;;;;;34.78;18.48;;;;;;;;;;5093398;28;20047;-83
2023/10/03 03:44:12;;;;;;;37.78;20.45;;;;;;;;;;5101607;28;20101;-84
2023/10/03 03:46:41;;;;;;;34.55;19.23;;;;;;;;;;5101308;28;20040;-84
2023/10/03 03:49:08;;;;;;;37.80;19.77;;;;;;;;;;5097380;28;20067;-83
2023/10/03 03:51:35;;;;;;;36.42;19.02;;;;;;;;;;5092866;28;20070;-84
2023/10/03 03:54:01;;;;;;;34.78;18.73;;;;;;;;;;5098555;28;20044;-84
2023/10/03 03:56:28;;;;;;;37.72;19.20;;;;;;;;;;5083282;28;20051;-84
2023/10/03 03:58:57;;;;;;;35.28;18.42;;;;;;;;;;5102850;28;20052;-84
2023/10/03 04:01:23;;;;;;;33.60;17.42;;;;;;;;;;5103169;28;20398;-84
2023/10/03 04:03:54;;;;;;;33.25;18.65;;;;;;;;;;5103795;28;20063;-86
2023/10/03 04:06:20;;;;;;;34.72;18.80;;;;;;;;;;5101753;28;20067;-85
2023/10/03 04:08:46;;;;;;;31.88;17.42;;;;;;;;;;5100685;28;20036;-85
2023/10/03 04:11:13;;;;;;;34.80;18.73;;;;;;;;;;5080315;28;20482;-84
2023/10/03 04:13:49;;;;;;;32.58;18.52;;;;;;;;;;5096163;28;20048;-85
2023/10/03 04:16:21;;;;;;;35.47;17.98;;;;;;;;;;5081088;28;20036;-85
2023/10/03 04:18:50;;;;;;;36.17;18.40;;;;;;;;;;5100991;28;20074;-84
2023/10/03 04:21:17;;;;;;;34.70;18.60;;;;;;;;;;5101483;28;20132;-84
2023/10/03 04:23:44;;;;;;;35.75;18.55;;;;;;;;;;5075696;28;20071;-85
2023/10/03 04:26:10;;;;;;;32.90;17.20;;;;;;;;;;5098555;28;20036;-87
2023/10/03 04:28:38;;;;;;;35.97;19.30;;;;;;;;;;5082475;28;20051;-85
2023/10/03 04:31:04;;;;;;;36.92;19.60;;;;;;;;;;5099844;28;20052;-85
2023/10/03 04:33:30;;;;;;;34.72;19.00;;;;;;;;;;5100371;28;20040;-83
2023/10/03 04:35:57;;;;;;;33.25;18.45;;;;;;;;;;5101986;28;20088;-84
2023/10/03 04:38:23;;;;;;;32.67;18.25;;;;;;;;;;5097789;28;20059;-85
2023/10/03 04:40:49;;;;;;;34.22;17.65;;;;;;;;;;5097371;28;20080;-85
2023/10/03 04:43:15;;;;;;;35.17;18.05;;;;;;;;;;5082064;28;20123;-85
2023/10/03 04:45:43;;;;;;;32.03;17.40;;;;;;;;;;5098816;28;20482;-85
2023/10/03 04:48:10;;;;;;;38.90;17.60;;;;;;;;;;5095496;28;20059;-85
2023/10/03 04:50:40;;;;;;;37.15;18.35;;;;;;;;;;5081159;28;20048;-85
2023/10/03 04:53:11;;;;;;;35.28;18.33;;;;;;;;;;5098786;28;20067;-86
2023/10/03 04:55:39;;;;;;;33.13;17.38;;;;;;;;;;5093245;28;20458;-85
2023/10/03 04:58:05;;;;;;;34.33;17.80;;;;;;;;;;5097268;28;20487;-85
2023/10/03 05:00:31;;;;;;;34.95;17.67;;;;;;;;;;5098647;28;20513;-85
2023/10/03 05:02:57;;;;;;;33.72;17.35;;;;;;;;;;5097739;28;20036;-84
2023/10/03 05:05:24;;;;;;;30.88;16.20;;;;;;;;;;5073084;28;20079;-84
2023/10/03 05:07:56;;;;;;;31.92;17.02;;;;;;;;;;5083137;28;20040;-85
2023/10/03 05:10:22;;;;;;;30.05;16.45;;;;;;;;;;5096844;28;20052;-85
2023/10/03 05:12:50;;;;;;;32.00;16.52;;;;;;;;;;5100046;28;20047;-85
2023/10/03 05:15:16;;;;;;;31.27;17.00;;;;;;;;;;5100000;28;20036;-85
2023/10/03 05:17:45;;;;;;;30.88;16.63;;;;;;;;;;5098427;28;20048;-85
2023/10/03 05:20:13;;;;;;;30.65;16.48;;;;;;;;;;5098576;28;20475;-85
2023/10/03 05:22:40;;;;;;;29.35;15.77;;;;;;;;;;5099709;28;20068;-85
2023/10/03 05:25:11;;;;;;;28.83;16.23;;;;;;;;;;5097177;28;20043;-85
2023/10/03 05:27:37;;;;;;;29.15;16.15;;;;;;;;;;5098709;28;20040;-85
2023/10/03 05:30:05;;;;;;;29.45;15.55;;;;;;;;;;5098654;28;20040;-85
2023/10/03 05:32:31;;;;;;;29.77;15.73;;;;;;;;;;5079852;28;20044;-85
2023/10/03 05:35:01;;;;;;;30.83;15.98;;;;;;;;;;5078532;28;20482;-85
2023/10/03 05:37:27;;;;;;;30.92;15.65;;;;;;;;;;5097121;28;20051;-85
2023/10/03 05:39:53;;;;;;;29.50;15.18;;;;;;;;;;5085469;28;20052;-85
2023/10/03 05:42:20;;;;;;;27.88;13.63;;;;;;;;;;5078566;28;20059;-86
2023/10/03 05:44:46;;;;;;;30.17;14.48;;;;;;;;;;5097410;28;20051;-85
2023/10/03 05:47:13;;;;;;;30.75;15.65;;;;;;;;;;5095288;28;20340;-86
2023/10/03 05:49:39;;;;;;;28.60;14.48;;;;;;;;;;5097558;28;20493;-84
2023/10/03 05:52:06;;;;;;;26.45;13.50;;;;;;;;;;5093405;28;20083;-84
2023/10/03 05:54:32;;;;;;;29.88;14.40;;;;;;;;;;5093822;28;20051;-85
2023/10/03 05:56:58;;;;;;;27.00;13.50;;;;;;;;;;5086567;28;20044;-83
2023/10/03 05:59:26;;;;;;;25.90;14.57;;;;;;;;;;5095197;28;20036;-84
2023/10/03 06:01:52;;;;;;;29.60;13.65;;;;;;;;;;5096423;28;20402;-84
2023/10/03 06:04:18;;;;;;;28.67;13.05;;;;;;;;;;5084224;28;20131;-85
2023/10/03 06:06:44;;;;;;;28.77;12.98;;;;;;;;;;5100333;28;20047;-87
2023/10/03 06:09:14;;;;;;;26.70;12.90;;;;;;;;;;5082579;28;20508;-85
2023/10/03 06:11:40;;;;;;;27.27;12.57;;;;;;;;;;5101387;28;20043;-84
2023/10/03 06:14:06;;;;;;;31.45;12.38;;;;;;;;;;5101173;28;20162;-84
2023/10/03 06:16:33;;;;;;;24.15;11.27;;;;;;;;;;5102277;28;20044;-84
2023/10/03 06:18:59;;;;;;;27.38;11.63;;;;;;;;;;5088029;28;20044;-86
2023/10/03 06:21:25;;;;;;;22.50;12.10;;;;;;;;;;5100397;28;20036;-85
2023/10/03 06:23:51;;;;;;;22.23;10.88;;;;;;;;;;5102260;28;20102;-84
2023/10/03 06:26:19;;;;;;;22.95;10.80;;;;;;;;;;5102699;28;20071;-84
2023/10/03 06:28:45;;;;;;;25.48;11.55;;;;;;;;;;5102850;28;20051;-86
2023/10/03 06:31:11;;;;;;;24.00;10.40;;;;;;;;;;5100073;28;20047;-84
2023/10/03 06:33:44;;;;;;;23.98;10.25;;;;;;;;;;5101547;28;20040;-85
2023/10/03 06:36:11;;;;;;;21.23;10.73;;;;;;;;;;5100085;28;20040;-86
2023/10/03 06:38:41;;;;;;;23.48;10.50;;;;;;;;;;5098780;28;20060;-84
2023/10/03 06:41:08;;;;;;;25.25;9.90;;;;;;;;;;5093922;28;20040;-82
2023/10/03 06:43:34;;;;;;;28.10;10.52;;;;;;;;;;5103744;28;20052;-82
2023/10/03 06:46:00;;;;;;;22.00;9.40;;;;;;;;;;5093421;28;20040;-81
2023/10/03 06:48:26;;;;;;;18.10;7.85;;;;;;;;;;5108125;28;20046;-79
2023/10/03 06:50:53;;;;;;;18.92;6.80;;;;;;;;;;5104006;28;20047;-84
2023/10/03 06:53:19;;;;;;;16.17;6.72;;;;;;;;;;5103758;28;20047;-83
2023/10/03 06:55:46;;;;;;;15.02;6.07;;;;;;;;;;5105073;28;20040;-82
2023/10/03 06:58:12;;;;;;;17.95;5.95;;;;;;;;;;5081266;28;20058;-82
2023/10/03 07:00:38;;;;;;;17.73;5.57;;;;;;;;;;5101643;28;20066;-82
2023/10/03 07:03:05;;;;;;;18.77;5.88;;;;;;;;;;5084969;28;20040;-83
2023/10/03 07:05:31;;;;;;;16.35;5.38;;;;;;;;;;5086884;28;20048;-85
2023/10/03 07:07:57;;;;;;;20.13;5.00;;;;;;;;;;5104410;28;20089;-84
2023/10/03 07:10:25;;;;;;;17.10;4.75;;;;;;;;;;5104809;28;20045;-82
2023/10/03 07:12:51;;;;;;;14.70;4.63;;;;;;;;;;5085060;28;20032;-82
2023/10/03 07:15:18;;;;;;;17.23;5.07;;;;;;;;;;5086951;28;20048;-83
2023/10/03 07:17:44;;;;;;;14.32;4.25;;;;;;;;;;5105946;28;20047;-81
2023/10/03 07:20:12;;;;;;;19.38;5.68;;;;;;;;;;5094053;28;20044;-82
2023/10/03 07:22:39;;;;;;;15.23;5.45;;;;;;;;;;5103303;28;20044;-81
2023/10/03 07:25:08;;;;;;;15.02;4.97;;;;;;;;;;5110131;28;20044;-82
2023/10/03 07:27:34;;;;;;;14.70;5.30;;;;;;;;;;5108804;28;20487;-83
2023/10/03 07:30:04;;;;;;;15.63;5.20;;;;;;;;;;5105356;28;20055;-86
2023/10/03 07:32:32;;;;;;;15.88;5.03;;;;;;;;;;5105849;28;20051;-83
2023/10/03 07:34:58;;;;;;;15.45;5.35;;;;;;;;;;5105293;28;20101;-83
2023/10/03 07:37:24;;;;;;;15.45;5.07;;;;;;;;;;5098571;28;20047;-85
2023/10/03 07:39:50;;;;;;;14.95;5.45;;;;;;;;;;5098126;28;20063;-83
2023/10/03 07:42:17;;;;;;;16.38;4.93;;;;;;;;;;5103175;28;20100;-82
2023/10/03 07:44:44;;;;;;;15.52;5.47;;;;;;;;;;5100829;28;20128;-84
2023/10/03 07:47:12;;;;;;;16.67;5.20;;;;;;;;;;5105490;28;20052;-83
2023/10/03 07:49:42;;;;;;;19.10;5.38;;;;;;;;;;5089131;28;20073;-84
2023/10/03 07:52:08;;;;;;;14.80;5.70;;;;;;;;;;5116973;28;20099;-83
2023/10/03 07:54:36;;;;;;;18.95;5.78;;;;;;;;;;5122817;28;20101;-82
2023/10/03 07:57:06;;;;;;;15.05;5.30;;;;;;;;;;5109246;28;20036;-83
2023/10/03 07:59:32;;;;;;;13.88;5.07;;;;;;;;;;5105325;28;20039;-85
2023/10/03 08:02:04;;;;;;;13.80;5.10;;;;;;;;;;5105686;28;20032;-82
2023/10/03 08:04:31;;;;;;;15.50;4.45;;;;;;;;;;5098922;28;20047;-84
2023/10/03 08:06:58;;;;;;;14.32;5.32;;;;;;;;;;5100648;28;20052;-82
2023/10/03 08:09:27;;;;;;;15.93;5.38;;;;;;;;;;5084363;28;20037;-83
2023/10/03 08:11:53;;;;;;;15.18;5.38;;;;;;;;;;5103960;28;20131;-83
2023/10/03 08:14:19;;;;;;;15.98;6.15;;;;;;;;;;5097992;28;20539;-82
2023/10/03 08:16:46;;;;;;;16.38;5.50;;;;;;;;;;5106355;28;20046;-82
2023/10/03 08:19:25;;;;;;;14.82;5.75;;;;;;;;;;5106611;28;20062;-84
2023/10/03 08:21:52;;;;;;;19.58;5.97;;;;;;;;;;5104501;28;20040;-83
2023/10/03 08:24:43;;;;;;;14.65;6.45;;;;;;;;;;5108440;28;20054;-83
2023/10/03 08:27:05;;;;;;;14.32;6.43;;;;;;;;;;5100357;28;20180;-82
2023/10/03 08:29:32;;;;;;;15.20;5.80;;;;;;;;;;5104339;28;20086;-82
2023/10/03 08:31:58;;;;;;;15.77;6.53;;;;;;;;;;5103771;28;20044;-83
2023/10/03 08:34:25;;;;;;;15.25;6.30;;;;;;;;;;5099325;28;20123;-81
2023/10/03 08:36:54;;;;;;;17.30;6.15;;;;;;;;;;5104923;28;20048;-85
2023/10/03 08:39:23;;;;;;;16.98;6.47;;;;;;;;;;5105084;28;20052;-84
2023/10/03 08:41:54;;;;;;;18.08;5.80;;;;;;;;;;5104427;28;20087;-83
2023/10/03 08:44:23;;;;;;;14.02;5.57;;;;;;;;;;5098015;28;20471;-83
2023/10/03 08:46:50;;;;;;;13.88;5.05;;;;;;;;;;5094630;28;20048;-83
2023/10/03 08:49:18;;;;;;;11.88;4.78;;;;;;;;;;5097987;28;20670;-83
2023/10/03 08:51:45;;;;;;;12.50;4.82;;;;;;;;;;5087147;28;20040;-83
2023/10/03 08:54:12;;;;;;;14.48;4.70;;;;;;;;;;5089715;28;20145;-82
2023/10/03 08:56:41;;;;;;;10.75;3.78;;;;;;;;;;5107198;28;20073;-82
2023/10/03 08:59:15;;;;;;;12.82;3.78;;;;;;;;;;5105649;28;20044;-83
2023/10/03 09:01:46;;;;;;;10.50;3.90;;;;;;;;;;5107512;28;20394;-82
2023/10/03 09:04:15;;;;;;;;;;;;;;;;;;5104292;28;20354;-83
2023/10/03 09:06:43;;;;;;;14.90;3.85;;;;;;;;;;5101341;28;20281;-82
2023/10/03 09:09:10;;;;;;;15.10;3.45;;;;;;;;;;5086927;28;20094;-82
2023/10/03 09:11:41;;;;;;;29.33;4.18;;;;;;;;;;5094513;28;20040;-83
2023/10/03 09:14:07;;;;;;;;;;;;;;;;;;5075495;28;20044;-82
2023/10/03 09:16:39;;;;;;;9.50;2.70;;;;;;;;;;5105741;28;19967;-82
2023/10/03 09:19:09;;;;;;;11.80;2.30;;;;;;;;;;5097832;28;20051;-81
2023/10/03 09:21:35;;;;;;;10.68;2.42;;;;;;;;;;5106225;28;20563;-81
2023/10/03 09:24:09;;;;;;;10.27;2.25;;;;;;;;;;5106674;28;20119;-81
2023/10/03 09:26:45;;;;;;;10.27;2.22;;;;;;;;;;5067458;28;20040;-82
2023/10/03 09:29:12;;;;;;;7.53;1.77;;;;;;;;;;5101478;28;20036;-82
2023/10/03 09:31:41;;;;;;;8.40;1.80;;;;;;;;;;5087526;28;20040;-82
2023/10/03 09:34:13;;;;;;;9.75;2.03;;;;;;;;;;5103813;28;20055;-83
2023/10/03 09:36:40;;;;;;;8.10;1.65;;;;;;;;;;5083320;28;20047;-84
2023/10/03 09:39:07;;;;;;;6.97;1.60;;;;;;;;;;5102562;28;20052;-83
2023/10/03 09:41:38;;;;;;;7.90;1.08;;;;;;;;;;5096783;28;20100;-84
2023/10/03 09:44:05;;;;;;;;;;;;;;;;;;5088905;28;20073;-81
2023/10/03 09:46:43;;;;;;;10.25;1.60;;;;;;;;;;5103688;28;19926;-82
2023/10/03 09:49:09;;;;;;;9.23;1.70;;;;;;;;;;5097630;28;20068;-80
2023/10/03 09:51:36;;;;;;;9.50;1.38;;;;;;;;;;5103610;28;20043;-82
2023/10/03 09:54:10;;;;;;;4.55;0.93;;;;;;;;;;5104937;28;20049;-81
2023/10/03 09:56:44;;;;;;;7.20;0.68;;;;;;;;;;5092874;28;20095;-82
2023/10/03 09:59:17;;;;;;;7.32;0.88;;;;;;;;;;5086692;28;20049;-83
2023/10/03 10:01:45;;;;;;;6.47;0.77;;;;;;;;;;5096728;28;20040;-83
2023/10/03 10:04:13;;;;;;;7.88;0.90;;;;;;;;;;5102922;28;20040;-83
2023/10/03 10:06:47;;;;;;;8.85;0.80;;;;;;;;;;5104959;28;20059;-82
2023/10/03 10:09:23;;;;;;;6.63;0.77;;;;;;;;;;5104079;28;20047;-82
2023/10/03 10:12:09;;;;;;;5.07;0.75;;;;;;;;;;5103964;28;20126;-83
2023/10/03 10:14:55;;;;;;;3.80;0.47;;;;;;;;;;5103586;28;20047;-83
2023/10/03 10:17:21;;;;;;;3.08;0.60;;;;;;;;;;5073120;28;20105;-82
2023/10/03 10:20:06;;;;;;;5.30;0.80;;;;;;;;;;5099945;28;20044;-82
2023/10/03 10:22:51;;;;;;;4.57;0.80;;;;;;;;;;5103930;28;20044;-83
2023/10/03 10:25:26;;;;;;;4.30;0.73;;;;;;;;;;5098250;28;20040;-83
2023/10/03 10:28:05;;;;;;;4.28;0.63;;;;;;;;;;5099558;28;20040;-84
2023/10/03 10:30:31;;;;;;;6.72;0.80;;;;;;;;;;5096115;28;20044;-83
2023/10/03 10:33:20;;;;;;;4.32;0.88;;;;;;;;;;5104140;28;20117;-82
2023/10/03 10:35:54;;;;;;;6.43;0.80;;;;;;;;;;5086006;28;20040;-83
2023/10/03 10:38:22;;;;;;;6.38;0.77;;;;;;;;;;5086705;28;20052;-82
2023/10/03 10:41:06;;;;;;;7.20;1.00;;;;;;;;;;5101796;28;20458;-82
2023/10/03 10:43:34;;;;;;;8.27;0.80;;;;;;;;;;5094100;28;20505;-81
2023/10/03 10:46:19;;;;;;;6.72;0.80;;;;;;;;;;5092989;28;20040;-82
2023/10/03 10:48:46;;;;;;;5.20;1.02;;;;;;;;;;5098839;28;20040;-81
2023/10/03 10:51:12;;;;;;;7.63;1.10;;;;;;;;;;5085159;28;20059;-82
2023/10/03 10:53:43;;;;;;;4.93;0.93;;;;;;;;;;5104128;28;20078;-82
2023/10/03 10:56:10;;;;;;;8.02;1.30;;;;;;;;;;5101951;28;20131;-81
2023/10/03 10:58:47;;;;;;;6.80;1.00;;;;;;;;;;5102427;28;20044;-81
2023/10/03 11:01:13;;;;;;;7.90;1.23;;;;;;;;;;5104353;28;20092;-83
2023/10/03 11:03:39;;;;;;;6.78;1.35;;;;;;;;;;5106101;28;20044;-81
2023/10/03 11:06:14;;;;;;;8.18;1.27;;;;;;;;;;5106086;28;20040;-80
2023/10/03 11:08:47;;;;;;;6.07;0.90;;;;;;;;;;5106146;28;20055;-81
2023/10/03 11:11:14;;;;;;;7.72;1.25;;;;;;;;;;5106294;28;20055;-82
2023/10/03 11:13:47;;;;;;;7.28;1.50;;;;;;;;;;5106643;28;20127;-82
2023/10/03 11:16:21;;;;;;;7.40;1.13;;;;;;;;;;5105680;28;20079;-81
2023/10/03 11:18:47;;;;;;;7.07;1.40;;;;;;;;;;5108340;28;20047;-81
2023/10/03 11:21:13;;;;;;;10.50;1.40;;;;;;;;;;5107323;28;20044;-82
2023/10/03 11:23:39;;;;;;;10.90;1.60;;;;;;;;;;5105630;28;20051;-82
2023/10/03 11:26:05;;;;;;;8.63;1.45;;;;;;;;;;5107285;28;20057;-81
2023/10/03 11:28:44;;;;;;;6.80;1.20;;;;;;;;;;5108388;28;20048;-82
2023/10/03 11:31:13;;;;;;;7.38;1.30;;;;;;;;;;5106849;28;20090;-83
2023/10/03 11:33:46;;;;;;;8.00;1.30;;;;;;;;;;5107578;28;20119;-81
2023/10/03 11:36:12;;;;;;;6.50;1.20;;;;;;;;;;5105248;28;20040;-83
2023/10/03 11:38:49;;;;;;;8.43;1.33;;;;;;;;;;5109857;28;20094;-83
2023/10/03 11:41:29;;;;;;;7.28;1.30;;;;;;;;;;5093441;28;20055;-82
2023/10/03 11:43:55;;;;;;;7.40;1.02;;;;;;;;;;5099225;28;20044;-82
2023/10/03 11:46:21;;;;;;;6.07;1.23;;;;;;;;;;5107759;28;20044;-82
2023/10/03 11:48:55;;;;;;;5.57;1.05;;;;;;;;;;5089750;28;20044;-83
2023/10/03 11:51:21;;;;;;;6.43;0.93;;;;;;;;;;5106015;28;20044;-84
2023/10/03 11:53:47;;;;;;;6.28;1.00;;;;;;;;;;5107430;28;20048;-80
2023/10/03 11:56:13;;;;;;;4.85;1.00;;;;;;;;;;5106280;28;20040;-82
2023/10/03 11:58:39;;;;;;;7.75;0.98;;;;;;;;;;5089720;28;20096;-82
2023/10/03 12:01:06;;;;;;;6.55;1.00;;;;;;;;;;5089621;28;20405;-83
2023/10/03 12:03:32;;;;;;;4.68;1.00;;;;;;;;;;5105089;28;20060;-83
2023/10/03 12:06:01;;;;;;;6.97;1.33;;;;;;;;;;5103639;28;21297;-82
2023/10/03 12:08:27;;;;;;;6.43;1.10;;;;;;;;;;5105188;28;20039;-82
2023/10/03 12:10:53;;;;;;;5.93;1.10;;;;;;;;;;5102992;28;20044;-82
2023/10/03 12:13:20;;;;;;;4.38;0.93;;;;;;;;;;5106245;28;20147;-82
2023/10/03 12:15:46;;;;;;;8.20;1.20;;;;;;;;;;5105925;28;20054;-81
2023/10/03 12:18:15;;;;;;;6.05;1.00;;;;;;;;;;5103733;28;20058;-82
2023/10/03 12:20:44;;;;;;;6.38;1.40;;;;;;;;;;5104263;28;20071;-83
2023/10/03 12:23:10;;;;;;;7.63;1.70;;;;;;;;;;5106878;28;20043;-83
2023/10/03 12:25:36;;;;;;;7.88;1.60;;;;;;;;;;5103611;28;20111;-84
2023/10/03 12:28:02;;;;;;;7.65;1.50;;;;;;;;;;5106246;28;20039;-82
2023/10/03 12:30:28;;;;;;;8.00;1.88;;;;;;;;;;5087553;28;20040;-80
2023/10/03 12:32:54;;;;;;;7.53;1.98;;;;;;;;;;5104489;28;20048;-82
2023/10/03 12:35:20;;;;;;;9.00;2.00;;;;;;;;;;5105232;28;20489;-82
2023/10/03 12:37:48;;;;;;;7.57;2.20;;;;;;;;;;5103530;28;20040;-81
2023/10/03 12:40:22;;;;;;;10.63;2.53;;;;;;;;;;5102368;28;20070;-82
2023/10/03 12:42:50;;;;;;;11.85;2.50;;;;;;;;;;5100985;28;20087;-85
2023/10/03 12:45:20;;;;;;;9.77;2.10;;;;;;;;;;5105686;28;20665;-83
2023/10/03 12:47:47;;;;;;;13.50;2.53;;;;;;;;;;5101909;28;20044;-83
2023/10/03 12:50:19;;;;;;;7.13;2.20;;;;;;;;;;5083139;28;20075;-82
2023/10/03 12:52:47;;;;;;;8.27;2.08;;;;;;;;;;5091395;28;20052;-82
2023/10/03 12:55:15;;;;;;;7.60;2.35;;;;;;;;;;5104059;28;20047;-84
2023/10/03 12:57:41;;;;;;;10.77;2.30;;;;;;;;;;5101829;28;20049;-82
2023/10/03 13:00:08;;;;;;;12.55;3.00;;;;;;;;;;5106085;28;20054;-82
2023/10/03 13:02:34;;;;;;;8.90;2.45;;;;;;;;;;5104773;28;20135;-82
2023/10/03 13:05:01;;;;;;;9.05;2.30;;;;;;;;;;5098634;28;20070;-83
2023/10/03 13:07:27;;;;;;;7.78;2.40;;;;;;;;;;5100091;28;20044;-83
2023/10/03 13:09:56;;;;;;;7.68;2.30;;;;;;;;;;5318302;22;20896;-85
2023/10/03 13:12:23;;;;;;;12.43;2.45;;;;;;;;;;5078681;28;20449;-82
2023/10/03 13:14:49;;;;;;;9.45;2.53;;;;;;;;;;5081301;28;20040;-83
2023/10/03 13:17:15;;;;;;;9.32;2.40;;;;;;;;;;5096617;28;20047;-82
2023/10/03 13:19:42;;;;;;;9.13;2.20;;;;;;;;;;5094525;28;20108;-83
2023/10/03 13:22:08;;;;;;;8.52;1.90;;;;;;;;;;5081321;28;20353;-81
2023/10/03 13:24:34;;;;;;;9.15;2.22;;;;;;;;;;5085419;28;20048;-82
2023/10/03 13:27:03;;;;;;;8.88;2.35;;;;;;;;;;5081976;28;20390;-84
2023/10/03 13:29:29;;;;;;;9.45;2.25;;;;;;;;;;5072093;28;20052;-83
2023/10/03 13:31:55;;;;;;;7.75;2.25;;;;;;;;;;5078933;28;20064;-83
2023/10/03 13:34:21;;;;;;;9.85;2.45;;;;;;;;;;5077600;28;20478;-82
2023/10/03 13:36:48;;;;;;;8.90;2.20;;;;;;;;;;5079898;28;20040;-83
2023/10/03 13:39:14;;;;;;;11.23;2.55;;;;;;;;;;5084300;28;20040;-84
2023/10/03 13:41:43;;;;;;;9.63;2.38;;;;;;;;;;5083617;28;20052;-83
2023/10/03 13:44:15;;;;;;;11.15;2.25;;;;;;;;;;5083702;28;20048;-83
2023/10/03 13:46:43;;;;;;;7.15;2.00;;;;;;;;;;5065260;28;20048;-84
2023/10/03 13:49:09;;;;;;;9.27;2.70;;;;;;;;;;5071485;28;20044;-84
2023/10/03 13:51:35;;;;;;;8.18;2.28;;;;;;;;;;5082874;28;20045;-83
2023/10/03 13:54:05;;;;;;;8.07;2.53;;;;;;;;;;5081960;28;20463;-84
2023/10/03 13:56:34;;;;;;;9.98;2.40;;;;;;;;;;5083596;28;20037;-85
2023/10/03 13:59:02;;;;;;;10.25;2.80;;;;;;;;;;5084638;28;20160;-83
2023/10/03 14:01:29;;;;;;;9.85;2.60;;;;;;;;;;5080368;28;20049;-83
2023/10/03 14:03:58;;;;;;;10.38;2.80;;;;;;;;;;5082558;28;20108;-82
2023/10/03 14:06:26;;;;;;;11.57;2.47;;;;;;;;;;5084357;28;20048;-83
2023/10/03 14:08:55;;;;;;;9.63;2.38;;;;;;;;;;5084787;28;20032;-84
2023/10/03 14:11:22;;;;;;;11.02;2.40;;;;;;;;;;5077989;28;20104;-84
2023/10/03 14:13:52;;;;;;;11.77;2.30;;;;;;;;;;5084445;28;20094;-84
2023/10/03 14:16:21;;;;;;;8.73;2.00;;;;;;;;;;5081177;28;20049;-83
2023/10/03 14:18:47;;;;;;;12.90;2.65;;;;;;;;;;5069468;28;20530;-83
2023/10/03 14:21:13;;;;;;;11.57;2.30;;;;;;;;;;5080141;28;20052;-84
2023/10/03 14:23:40;;;;;;;10.07;2.20;;;;;;;;;;5080013;28;20048;-82
2023/10/03 14:26:06;;;;;;;10.77;2.58;;;;;;;;;;5082528;28;20048;-82
2023/10/03 14:28:33;;;;;;;11.95;2.53;;;;;;;;;;5083760;28;20041;-82
2023/10/03 14:31:03;;;;;;;9.13;2.10;;;;;;;;;;5083474;28;20049;-82
2023/10/03 14:33:30;;;;;;;11.45;2.35;;;;;;;;;;5080359;28;20071;-84
2023/10/03 14:35:59;;;;;;;13.50;2.75;;;;;;;;;;5085650;28;20106;-82
2023/10/03 14:38:26;;;;;;;13.95;2.97;;;;;;;;;;5072405;28;20059;-83